Time;durP1;ratioP1;P1;durP2;ratioP2;P2;SDS_P1;SDS_P2;PMS_P1;PMS_P2;Temp;Humidity;BMP_temperature;BMP_pressure;BME280_temperature;BME280_humidity;BME280_pressure;Samples;Min_cycle;Max_cycle;Signal;HPM_P1;HPM_P2
2023/12/25 00:01:04;;;;;;;2.87;1.23;;;11.00;99.90;;;;;;5076300;28;20552;-47
2023/12/25 00:03:32;;;;;;;3.63;1.10;;;11.00;99.90;;;;;;5076853;28;20241;-47
2023/12/25 00:05:58;;;;;;;0.93;0.83;;;11.00;99.90;;;;;;5076932;28;20187;-49
2023/12/25 00:08:24;;;;;;;0.60;0.60;;;11.00;99.90;;;;;;5059137;28;20544;-49
2023/12/25 00:10:49;;;;;;;2.43;1.03;;;11.00;99.90;;;;;;5076498;28;20763;-48
2023/12/25 00:13:16;;;;;;;2.17;1.43;;;11.00;99.90;;;;;;5076969;28;20211;-47
2023/12/25 00:19:06;;;;;;;1.50;1.40;;;11.00;99.90;;;;;;5076533;28;20158;-47
2023/12/25 00:21:31;;;;;;;3.33;1.03;;;11.00;99.90;;;;;;5058065;28;20221;-47
2023/12/25 00:23:57;;;;;;;3.67;1.20;;;11.00;99.90;;;;;;5076548;28;20263;-49
2023/12/25 00:26:26;;;;;;;5.30;1.40;;;11.00;99.90;;;;;;5058796;28;20229;-47
2023/12/25 00:28:54;;;;;;;3.50;1.63;;;11.00;99.90;;;;;;5076921;28;20557;-47
2023/12/25 00:31:22;;;;;;;2.13;1.23;;;11.00;99.90;;;;;;5076939;28;20239;-50
2023/12/25 00:33:49;;;;;;;3.80;1.50;;;11.00;99.90;;;;;;5077794;28;20250;-48
2023/12/25 00:36:16;;;;;;;3.17;1.50;;;11.00;99.90;;;;;;5077085;28;20175;-44
2023/12/25 00:38:42;;;;;;;1.40;0.97;;;11.00;99.90;;;;;;5076699;28;20211;-43
2023/12/25 00:41:09;;;;;;;1.00;0.90;;;12.20;99.90;;;;;;5058359;28;20293;-44
2023/12/25 00:43:35;;;;;;;1.37;1.10;;;11.00;99.90;;;;;;5076116;28;20694;-44
2023/12/25 00:46:05;;;;;;;1.97;1.53;;;10.90;99.90;;;;;;5066565;28;20199;-45
2023/12/25 00:48:30;;;;;;;1.53;1.07;;;10.90;99.90;;;;;;5073536;28;20198;-43
2023/12/25 00:51:03;;;;;;;2.07;1.03;;;10.90;99.90;;;;;;5072770;28;20210;-45
2023/12/25 00:53:29;;;;;;;1.13;1.03;;;10.90;99.90;;;;;;5080099;28;20191;-45
2023/12/25 00:55:55;;;;;;;1.70;1.30;;;10.90;99.90;;;;;;5059142;28;20183;-45
2023/12/25 00:58:35;;;;;;;1.40;0.80;;;11.00;99.90;;;;;;5076660;28;20180;-43
2023/12/25 01:01:07;;;;;;;2.60;1.03;;;10.90;99.90;;;;;;5076415;28;20627;-45
2023/12/25 01:03:33;;;;;;;1.20;0.90;;;10.90;99.90;;;;;;5076743;28;20167;-44
2023/12/25 01:05:59;;;;;;;1.00;0.90;;;10.90;99.90;;;;;;5076058;28;20192;-44
2023/12/25 01:08:29;;;;;;;1.60;0.83;;;10.90;99.90;;;;;;5075966;28;20271;-42
2023/12/25 01:11:00;;;;;;;1.90;1.43;;;10.90;99.90;;;;;;5075610;28;20559;-43
2023/12/25 01:13:29;;;;;;;1.23;0.90;;;10.90;99.90;;;;;;5058454;28;20228;-44
2023/12/25 01:15:55;;;;;;;1.50;0.73;;;10.90;99.90;;;;;;5057856;28;20180;-43
2023/12/25 01:18:20;;;;;;;1.27;0.80;;;10.90;99.90;;;;;;5075993;28;20233;-43
2023/12/25 01:20:50;;;;;;;1.07;0.77;;;10.90;99.90;;;;;;5075532;28;20225;-43
2023/12/25 01:23:30;;;;;;;1.00;0.73;;;10.90;99.90;;;;;;5075856;28;20277;-44
2023/12/25 01:25:55;;;;;;;1.00;0.90;;;11.00;99.90;;;;;;5057564;28;20674;-43
2023/12/25 01:28:27;;;;;;;1.20;0.63;;;11.00;99.90;;;;;;5075570;28;20278;-43
2023/12/25 01:30:57;;;;;;;2.80;1.00;;;11.10;99.90;;;;;;5057335;28;20245;-45
2023/12/25 01:33:26;;;;;;;0.80;0.73;;;11.00;99.90;;;;;;5075508;28;20182;-44
2023/12/25 01:35:56;;;;;;;0.97;0.60;;;11.00;99.90;;;;;;5057385;28;20196;-43
2023/12/25 01:38:22;;;;;;;2.13;1.10;;;11.00;99.90;;;;;;5057748;28;20197;-43
2023/12/25 01:40:47;;;;;;;1.37;0.73;;;11.00;99.90;;;;;;5057329;28;20570;-44
2023/12/25 01:43:14;;;;;;;0.50;0.50;;;11.00;99.90;;;;;;5074334;28;20195;-43
2023/12/25 01:45:44;;;;;;;1.03;0.87;;;11.10;99.90;;;;;;5074735;28;20619;-43
2023/12/25 01:48:16;;;;;;;2.63;0.80;;;11.10;99.90;;;;;;5074100;28;20199;-42
2023/12/25 01:50:43;;;;;;;2.33;0.83;;;11.10;99.90;;;;;;5057013;28;20250;-44
2023/12/25 01:53:09;;;;;;;1.27;0.70;;;11.10;99.90;;;;;;5075151;28;20543;-44
2023/12/25 01:55:56;;;;;;;1.73;0.77;;;11.10;99.90;;;;;;5074733;28;20183;-44
2023/12/25 01:58:27;;;;;;;0.60;0.60;;;11.20;99.90;;;;;;5074855;28;20179;-44
2023/12/25 02:01:02;;;;;;;0.77;0.60;;;11.20;99.90;;;;;;5074016;28;20298;-43
2023/12/25 02:03:28;;;;;;;2.13;0.60;;;11.20;99.90;;;;;;5075141;28;20175;-45
2023/12/25 02:05:54;;;;;;;1.53;0.80;;;11.20;99.90;;;;;;5074308;28;20600;-44
2023/12/25 02:08:20;;;;;;;0.80;0.80;;;11.20;99.90;;;;;;5074390;28;20186;-43
2023/12/25 02:10:46;;;;;;;1.33;0.83;;;11.20;99.90;;;;;;5074471;28;20211;-45
2023/12/25 02:13:24;;;;;;;1.17;0.63;;;11.10;99.90;;;;;;5074257;28;20252;-45
2023/12/25 02:15:51;;;;;;;1.73;0.60;;;11.10;99.90;;;;;;5056803;28;20191;-44
2023/12/25 02:18:19;;;;;;;1.47;0.63;;;11.10;99.90;;;;;;5074585;28;20172;-46
2023/12/25 02:20:45;;;;;;;0.60;0.60;;;11.10;99.90;;;;;;5073377;28;20227;-45
2023/12/25 02:23:16;;;;;;;0.30;0.30;;;11.10;99.90;;;;;;5074184;28;20195;-44
2023/12/25 02:25:54;;;;;;;2.73;0.90;;;11.10;99.90;;;;;;5057162;28;20163;-42
2023/12/25 02:28:25;;;;;;;0.70;0.70;;;11.10;99.90;;;;;;5073940;28;20171;-45
2023/12/25 02:30:53;;;;;;;2.30;0.90;;;11.10;99.90;;;;;;5073736;28;20213;-44
2023/12/25 02:33:20;;;;;;;0.67;0.67;;;11.10;99.90;;;;;;5056572;28;20725;-43
2023/12/25 02:35:49;;;;;;;1.57;0.90;;;11.10;99.90;;;;;;5068947;28;20183;-45
2023/12/25 02:38:21;;;;;;;0.60;0.60;;;11.10;99.90;;;;;;5073739;28;20190;-44
2023/12/25 02:40:47;;;;;;;0.80;0.70;;;11.00;99.90;;;;;;5074085;28;20195;-47
2023/12/25 02:43:13;;;;;;;1.40;0.83;;;11.10;99.90;;;;;;5073700;28;20649;-47
2023/12/25 02:45:42;;;;;;;1.57;1.10;;;11.10;99.90;;;;;;5073922;28;20254;-46
2023/12/25 02:48:09;;;;;;;1.70;1.20;;;11.10;99.90;;;;;;5073711;28;20254;-48
2023/12/25 02:50:37;;;;;;;1.10;0.70;;;11.00;99.90;;;;;;5073487;28;20207;-48
2023/12/25 02:53:06;;;;;;;4.37;1.40;;;11.00;99.90;;;;;;5055590;28;20179;-48
2023/12/25 02:55:39;;;;;;;2.30;0.80;;;11.00;99.90;;;;;;5073515;28;20192;-47
2023/12/25 02:58:04;;;;;;;1.27;0.87;;;11.00;99.90;;;;;;5073484;28;20608;-46
2023/12/25 03:00:30;;;;;;;1.20;0.67;;;11.00;99.90;;;;;;5055550;28;20199;-48
2023/12/25 03:02:58;;;;;;;3.23;1.33;;;11.00;99.90;;;;;;5073458;28;20655;-48
2023/12/25 03:05:23;;;;;;;2.37;1.10;;;11.00;99.90;;;;;;5073734;28;20175;-47
2023/12/25 03:07:49;;;;;;;1.20;1.00;;;11.00;99.90;;;;;;5056058;28;20194;-48
2023/12/25 03:10:18;;;;;;;4.17;1.30;;;11.00;99.90;;;;;;5073490;28;20566;-47
2023/12/25 03:12:43;;;;;;;2.50;1.27;;;11.00;99.90;;;;;;5074144;28;20181;-46
2023/12/25 03:15:09;;;;;;;0.80;0.77;;;11.00;99.90;;;;;;5056131;28;20266;-49
2023/12/25 03:17:35;;;;;;;0.60;0.60;;;11.00;99.90;;;;;;5055867;28;20182;-48
2023/12/25 03:20:03;;;;;;;0.90;0.83;;;11.00;99.90;;;;;;5073324;28;20631;-46
2023/12/25 03:22:29;;;;;;;1.40;1.13;;;10.90;99.90;;;;;;5055396;28;20262;-47
2023/12/25 03:24:54;;;;;;;2.60;1.33;;;11.00;99.90;;;;;;5073514;28;20559;-46
2023/12/25 03:27:26;;;;;;;2.43;1.07;;;11.00;99.90;;;;;;5073600;28;20262;-45
2023/12/25 03:30:02;;;;;;;2.00;1.03;;;11.00;99.90;;;;;;5073088;28;20206;-48
2023/12/25 03:32:27;;;;;;;2.10;0.90;;;11.00;99.90;;;;;;5073439;28;20585;-48
2023/12/25 03:34:53;;;;;;;4.37;1.13;;;11.00;99.90;;;;;;5073189;28;20195;-46
2023/12/25 03:37:22;;;;;;;0.60;0.57;;;11.10;99.90;;;;;;5073213;28;20179;-47
2023/12/25 03:39:47;;;;;;;1.10;1.00;;;11.00;99.90;;;;;;5073040;28;20196;-47
2023/12/25 03:42:14;;;;;;;0.80;0.67;;;11.10;99.90;;;;;;5073110;28;20194;-49
2023/12/25 03:44:42;;;;;;;3.20;1.60;;;11.10;99.90;;;;;;5073327;28;20188;-47
2023/12/25 03:47:10;;;;;;;2.10;0.90;;;11.10;99.90;;;;;;5072869;28;20194;-47
2023/12/25 03:49:36;;;;;;;4.57;1.00;;;11.10;99.90;;;;;;5072685;28;20245;-48
2023/12/25 03:52:03;;;;;;;1.30;1.00;;;11.10;99.90;;;;;;5055145;28;20184;-47
2023/12/25 03:54:29;;;;;;;5.30;1.33;;;11.10;99.90;;;;;;5073236;28;20228;-48
2023/12/25 03:56:56;;;;;;;1.23;0.73;;;11.10;99.90;;;;;;5055535;28;20184;-47
2023/12/25 03:59:22;;;;;;;3.10;1.00;;;11.10;99.90;;;;;;5055207;28;20204;-47
2023/12/25 04:01:57;;;;;;;3.47;0.80;;;11.10;99.90;;;;;;5054927;28;20194;-47
2023/12/25 04:04:23;;;;;;;1.87;1.10;;;11.20;99.90;;;;;;5073180;28;20327;-46
2023/12/25 04:06:51;;;;;;;1.83;0.90;;;11.20;99.90;;;;;;5055434;28;20223;-49
2023/12/25 04:09:23;;;;;;;1.37;1.00;;;11.20;99.90;;;;;;5072815;28;20258;-47
2023/12/25 04:11:49;;;;;;;1.03;0.93;;;11.20;99.90;;;;;;5073118;28;20172;-49
2023/12/25 04:14:25;;;;;;;2.23;1.10;;;11.20;99.90;;;;;;5056453;28;20206;-46
2023/12/25 04:16:51;;;;;;;0.80;0.80;;;11.20;99.90;;;;;;5081279;28;20239;-47
2023/12/25 04:19:17;;;;;;;0.80;0.80;;;11.20;99.90;;;;;;5065519;28;20191;-47
2023/12/25 04:21:43;;;;;;;2.23;0.90;;;11.20;99.90;;;;;;5079201;28;20176;-47
2023/12/25 04:24:09;;;;;;;1.83;0.60;;;11.20;99.90;;;;;;5056776;28;20593;-47
2023/12/25 04:26:40;;;;;;;1.00;0.80;;;11.20;99.90;;;;;;5058688;28;20195;-46
2023/12/25 04:29:05;;;;;;;1.23;0.80;;;11.20;99.90;;;;;;5058788;28;20196;-48
2023/12/25 04:31:31;;;;;;;2.70;0.70;;;11.30;99.90;;;;;;5076533;28;20299;-48
2023/12/25 04:33:56;;;;;;;0.63;0.50;;;11.20;99.90;;;;;;5076642;28;20183;-48
2023/12/25 04:36:31;;;;;;;1.07;0.80;;;11.20;99.90;;;;;;5076325;28;20179;-48
2023/12/25 04:38:58;;;;;;;1.47;0.80;;;11.20;99.90;;;;;;5058508;28;20167;-48
2023/12/25 04:41:24;;;;;;;1.50;0.60;;;11.20;99.90;;;;;;5076434;28;20566;-47
2023/12/25 04:43:53;;;;;;;1.73;0.83;;;11.30;99.90;;;;;;5076421;28;20263;-46
2023/12/25 04:46:19;;;;;;;0.73;0.70;;;11.20;99.90;;;;;;5076111;28;20491;-46
2023/12/25 04:48:47;;;;;;;2.50;0.70;;;11.20;99.90;;;;;;5058495;28;20553;-47
2023/12/25 04:51:12;;;;;;;0.60;0.60;;;11.20;99.90;;;;;;5057999;28;20586;-47
2023/12/25 04:57:00;;;;;;;2.17;0.90;;;11.20;99.90;;;;;;5076079;28;20346;-48
2023/12/25 04:59:27;;;;;;;1.93;0.40;;;11.10;99.90;;;;;;5075805;28;20683;-48
2023/12/25 05:01:53;;;;;;;0.80;0.50;;;11.10;99.90;;;;;;5058149;28;20191;-47
2023/12/25 05:04:25;;;;;;;1.90;0.80;;;11.10;99.90;;;;;;5076026;28;20184;-46
2023/12/25 05:06:51;;;;;;;1.27;0.70;;;11.10;99.90;;;;;;5075926;28;20264;-46
2023/12/25 05:09:17;;;;;;;2.30;0.60;;;11.10;99.90;;;;;;5075878;28;20631;-47
2023/12/25 05:11:42;;;;;;;0.87;0.73;;;11.10;99.90;;;;;;5075517;28;20664;-47
2023/12/25 05:14:08;;;;;;;1.23;0.80;;;11.10;99.90;;;;;;5075666;28;20187;-48
2023/12/25 05:16:36;;;;;;;2.40;1.00;;;11.10;99.90;;;;;;5075977;28;20191;-47
2023/12/25 05:19:10;;;;;;;2.83;0.87;;;11.00;99.90;;;;;;5075291;28;20195;-48
2023/12/25 05:21:39;;;;;;;1.00;0.50;;;11.00;99.90;;;;;;5075457;28;20563;-47
2023/12/25 05:24:07;;;;;;;0.77;0.57;;;11.00;99.90;;;;;;5075360;28;20176;-48
2023/12/25 05:26:32;;;;;;;1.47;0.80;;;11.10;99.90;;;;;;5075498;28;20583;-48
2023/12/25 05:28:58;;;;;;;2.20;0.90;;;11.00;99.90;;;;;;5057451;28;20188;-48
2023/12/25 05:31:24;;;;;;;2.50;0.70;;;11.00;99.90;;;;;;5057316;28;20245;-47
2023/12/25 05:33:55;;;;;;;0.70;0.67;;;11.00;99.90;;;;;;5075103;28;20176;-48
2023/12/25 05:36:21;;;;;;;0.93;0.80;;;11.00;99.90;;;;;;5074206;28;20254;-49
2023/12/25 05:38:46;;;;;;;0.77;0.60;;;11.00;99.90;;;;;;5074954;28;20266;-49
2023/12/25 05:41:12;;;;;;;1.23;1.07;;;11.00;99.90;;;;;;5075221;28;20252;-47
2023/12/25 05:43:39;;;;;;;2.30;1.00;;;11.00;99.90;;;;;;5057291;28;20241;-48
2023/12/25 05:46:12;;;;;;;2.50;0.90;;;11.00;99.90;;;;;;5057004;28;20279;-49
2023/12/25 05:48:37;;;;;;;2.23;1.17;;;11.00;99.90;;;;;;5075542;28;20198;-46
2023/12/25 05:51:06;;;;;;;3.87;0.93;;;11.00;99.90;;;;;;5058004;28;20215;-48
2023/12/25 05:53:31;;;;;;;2.43;0.73;;;11.00;99.90;;;;;;5074174;28;20640;-44
2023/12/25 05:55:58;;;;;;;3.60;1.10;;;11.00;99.90;;;;;;5075206;28;20228;-46
2023/12/25 05:58:23;;;;;;;1.93;0.80;;;11.00;99.90;;;;;;5074559;28;20667;-44
2023/12/25 06:00:58;;;;;;;1.50;0.83;;;11.00;99.90;;;;;;5056781;28;20203;-44
2023/12/25 06:03:24;;;;;;;1.57;0.80;;;11.00;99.90;;;;;;5074887;28;20174;-43
2023/12/25 06:06:45;;;;;;;0.90;0.60;;;11.00;99.90;;;;;;5056764;28;20190;-43
2023/12/25 06:09:12;;;;;;;0.77;0.77;;;11.10;99.90;;;;;;5074593;28;20194;-43
2023/12/25 06:11:38;;;;;;;2.10;0.60;;;11.10;99.90;;;;;;5074562;28;20264;-45
2023/12/25 06:14:07;;;;;;;2.67;0.77;;;11.00;99.90;;;;;;5056836;28;20191;-43
2023/12/25 06:16:34;;;;;;;2.40;0.63;;;11.00;99.90;;;;;;5074256;28;20182;-42
2023/12/25 06:19:03;;;;;;;0.60;0.53;;;11.00;99.90;;;;;;5074369;28;20225;-44
2023/12/25 06:22:18;;;;;;;0.80;0.60;;;11.00;99.90;;;;;;5074041;28;20195;-44
2023/12/25 06:24:43;;;;;;;1.00;0.60;;;11.00;99.90;;;;;;5074267;28;20186;-44
2023/12/25 06:27:09;;;;;;;2.40;0.53;;;11.00;99.90;;;;;;5056402;28;20548;-46
2023/12/25 06:29:38;;;;;;;0.50;0.50;;;11.00;99.90;;;;;;5073864;28;20224;-44
2023/12/25 06:32:08;;;;;;;2.57;0.70;;;11.10;99.90;;;;;;5074180;28;20540;-45
2023/12/25 06:34:34;;;;;;;3.20;0.60;;;11.00;99.90;;;;;;5073850;28;20179;-44
2023/12/25 06:37:04;;;;;;;0.87;0.57;;;11.10;99.90;;;;;;5074089;28;20294;-44
2023/12/25 06:39:30;;;;;;;1.90;1.10;;;11.00;99.90;;;;;;5074163;28;20279;-44
2023/12/25 06:41:55;;;;;;;1.60;0.63;;;11.00;99.90;;;;;;5074195;28;20210;-44
2023/12/25 06:44:21;;;;;;;0.63;0.50;;;11.00;99.90;;;;;;5055842;28;20187;-43
2023/12/25 06:46:49;;;;;;;0.70;0.70;;;11.00;99.90;;;;;;5073482;28;20252;-44
2023/12/25 06:49:15;;;;;;;2.70;0.47;;;11.00;99.90;;;;;;5073945;28;20266;-45
2023/12/25 06:51:45;;;;;;;1.13;0.93;;;11.00;99.90;;;;;;5073973;28;20214;-45
2023/12/25 06:54:12;;;;;;;4.90;2.00;;;11.00;99.90;;;;;;5073671;28;20176;-43
2023/12/25 06:56:49;;;;;;;3.83;1.37;;;11.10;99.90;;;;;;5073860;28;20190;-44
2023/12/25 06:59:15;;;;;;;1.30;0.93;;;11.00;99.90;;;;;;5055561;28;20576;-44
2023/12/25 07:01:41;;;;;;;2.07;1.20;;;11.00;99.90;;;;;;5073433;28;20274;-43
2023/12/25 07:04:11;;;;;;;1.13;0.70;;;11.10;99.90;;;;;;5073915;28;20221;-43
2023/12/25 07:06:37;;;;;;;1.70;1.07;;;11.00;99.90;;;;;;5072759;28;20223;-44
2023/12/25 07:09:03;;;;;;;0.67;0.60;;;11.10;99.90;;;;;;5055549;28;20200;-45
2023/12/25 07:11:28;;;;;;;0.80;0.80;;;11.00;99.90;;;;;;5073353;28;20236;-45
2023/12/25 07:13:59;;;;;;;0.70;0.70;;;11.10;99.90;;;;;;5055369;28;20190;-45
2023/12/25 07:16:25;;;;;;;1.13;0.77;;;11.10;99.90;;;;;;5039146;28;20198;-44
2023/12/25 07:18:53;;;;;;;0.40;0.37;;;11.10;99.90;;;;;;5038960;28;20192;-44
2023/12/25 07:21:19;;;;;;;1.90;0.97;;;11.10;99.90;;;;;;5055287;28;20265;-46
2023/12/25 07:23:52;;;;;;;1.43;0.50;;;11.10;99.90;;;;;;5073271;28;20730;-44
2023/12/25 07:26:21;;;;;;;0.60;0.53;;;11.10;99.90;;;;;;5073533;28;20652;-44
2023/12/25 07:28:49;;;;;;;2.33;0.70;;;11.10;99.90;;;;;;5055290;28;20202;-43
2023/12/25 07:31:17;;;;;;;2.43;1.23;;;11.10;99.90;;;;;;5055142;28;20222;-44
2023/12/25 07:33:46;;;;;;;0.60;0.60;;;11.10;99.90;;;;;;5073225;28;20632;-44
2023/12/25 07:36:14;;;;;;;2.77;1.93;;;11.10;99.90;;;;;;5073424;28;20179;-45
2023/12/25 07:38:43;;;;;;;1.67;0.93;;;11.20;99.90;;;;;;5055868;28;20183;-44
2023/12/25 07:41:10;;;;;;;2.07;0.70;;;11.20;99.90;;;;;;5078381;28;20207;-44
2023/12/25 07:43:36;;;;;;;0.53;0.53;;;11.20;99.90;;;;;;5079921;28;20287;-45
2023/12/25 07:46:05;;;;;;;0.20;0.20;;;11.20;99.90;;;;;;5080136;28;20215;-45
2023/12/25 07:48:33;;;;;;;0.70;0.70;;;11.10;99.90;;;;;;5079671;28;20179;-44
2023/12/25 07:51:06;;;;;;;0.80;0.73;;;11.10;99.90;;;;;;5077698;28;20726;-45
2023/12/25 07:53:31;;;;;;;0.50;0.50;;;11.20;99.90;;;;;;5082675;28;20661;-44
2023/12/25 07:55:58;;;;;;;0.53;0.50;;;11.20;99.90;;;;;;5083290;28;20543;-42
2023/12/25 07:58:24;;;;;;;1.30;1.20;;;11.20;99.90;;;;;;5064429;28;20176;-45
2023/12/25 08:00:50;;;;;;;0.90;0.60;;;11.20;99.90;;;;;;5078345;28;20606;-43
2023/12/25 08:03:15;;;;;;;0.47;0.40;;;11.20;99.90;;;;;;5077679;28;20183;-44
2023/12/25 08:05:42;;;;;;;0.50;0.30;;;11.20;99.90;;;;;;5077275;28;20183;-43
2023/12/25 08:08:11;;;;;;;0.50;0.37;;;11.20;99.90;;;;;;5059417;28;20167;-43
2023/12/25 08:10:37;;;;;;;0.30;0.30;;;11.20;99.90;;;;;;5077366;28;20241;-42
2023/12/25 08:13:03;;;;;;;0.43;0.37;;;11.20;99.90;;;;;;5077183;28;20671;-42
2023/12/25 08:15:29;;;;;;;0.60;0.40;;;11.20;99.90;;;;;;5076064;28;20187;-43
2023/12/25 08:17:55;;;;;;;0.37;0.37;;;11.20;99.90;;;;;;5059029;28;20183;-44
2023/12/25 08:20:22;;;;;;;0.30;0.30;;;11.30;99.90;;;;;;5076478;28;20216;-43
2023/12/25 08:22:48;;;;;;;0.83;0.83;;;11.30;99.90;;;;;;5077185;28;20175;-42
2023/12/25 08:25:17;;;;;;;0.40;0.30;;;11.30;99.90;;;;;;5077277;28;20179;-44
2023/12/25 08:27:43;;;;;;;0.40;0.40;;;11.30;99.90;;;;;;5076789;28;20176;-44
2023/12/25 08:30:10;;;;;;;0.37;0.30;;;11.30;99.90;;;;;;5058576;28;20219;-43
2023/12/25 08:32:36;;;;;;;0.30;0.30;;;11.40;99.90;;;;;;5077364;28;20254;-44
2023/12/25 08:35:05;;;;;;;0.50;0.40;;;11.40;99.90;;;;;;5058806;28;20264;-42
2023/12/25 08:37:30;;;;;;;0.93;0.33;;;11.40;99.90;;;;;;5076316;28;20207;-43
2023/12/25 08:39:56;;;;;;;0.97;0.43;;;11.40;99.90;;;;;;5058803;28;20239;-43
2023/12/25 08:42:21;;;;;;;0.83;0.40;;;11.40;99.90;;;;;;5076598;28;20262;-43
2023/12/25 08:44:47;;;;;;;0.23;0.23;;;11.30;99.90;;;;;;5058397;28;20181;-45
2023/12/25 08:47:19;;;;;;;0.30;0.30;;;11.40;99.90;;;;;;5071093;28;20190;-42
2023/12/25 08:49:45;;;;;;;0.83;0.50;;;11.40;99.90;;;;;;5076164;28;20215;-43
2023/12/25 08:52:11;;;;;;;0.30;0.30;;;11.40;99.90;;;;;;5058294;28;20432;-43
2023/12/25 08:54:36;;;;;;;0.30;0.30;;;11.40;99.90;;;;;;5058233;28;20180;-43
2023/12/25 08:57:04;;;;;;;1.97;0.80;;;11.40;99.90;;;;;;5076109;28;20167;-43
2023/12/25 08:59:29;;;;;;;0.40;0.40;;;11.40;99.90;;;;;;5075971;28;20191;-44
2023/12/25 09:01:56;;;;;;;0.50;0.50;;;11.40;99.90;;;;;;5076147;28;20178;-42
2023/12/25 09:04:22;;;;;;;0.33;0.33;;;11.40;99.90;;;;;;5076336;28;20203;-44
2023/12/25 09:06:48;;;;;;;0.60;0.40;;;11.40;99.90;;;;;;5076323;28;20606;-43
2023/12/25 09:09:14;;;;;;;0.77;0.70;;;11.40;99.90;;;;;;5057832;28;20548;-43
2023/12/25 09:11:40;;;;;;;0.57;0.57;;;11.40;99.90;;;;;;5075416;28;20203;-42
2023/12/25 09:14:07;;;;;;;0.70;0.60;;;11.40;99.90;;;;;;5057974;28;20187;-44
2023/12/25 09:16:32;;;;;;;1.73;0.87;;;11.40;99.90;;;;;;5058147;28;20175;-43
2023/12/25 09:19:01;;;;;;;1.30;0.77;;;11.40;99.90;;;;;;5075703;28;20214;-44
2023/12/25 09:21:28;;;;;;;1.50;0.50;;;11.40;99.90;;;;;;5057296;28;20227;-42
2023/12/25 09:23:54;;;;;;;0.70;0.37;;;11.50;99.90;;;;;;5075422;28;20608;-43
2023/12/25 09:26:20;;;;;;;0.67;0.47;;;11.40;99.90;;;;;;5075330;28;20207;-42
2023/12/25 09:28:52;;;;;;;0.50;0.40;;;11.40;99.90;;;;;;5073498;28;20188;-43
2023/12/25 09:31:18;;;;;;;0.30;0.30;;;11.40;99.90;;;;;;5075555;28;20212;-42
2023/12/25 09:33:43;;;;;;;0.40;0.30;;;11.40;99.90;;;;;;5075018;28;20192;-45
2023/12/25 09:36:13;;;;;;;0.87;0.60;;;11.40;99.90;;;;;;5075356;28;20172;-43
2023/12/25 09:38:40;;;;;;;0.60;0.60;;;11.40;99.90;;;;;;5075306;28;20168;-42
2023/12/25 09:41:17;;;;;;;0.23;0.23;;;11.40;99.90;;;;;;5057271;28;20683;-43
2023/12/25 09:43:47;;;;;;;0.30;0.30;;;11.40;99.90;;;;;;5074499;28;20191;-42
2023/12/25 09:46:14;;;;;;;0.20;0.20;;;11.40;99.90;;;;;;5074732;28;20183;-43
2023/12/25 09:48:40;;;;;;;0.30;0.30;;;11.40;99.90;;;;;;5075159;28;20512;-43
2023/12/25 09:51:09;;;;;;;0.40;0.40;;;11.40;99.90;;;;;;5056547;28;20225;-41
2023/12/25 09:53:34;;;;;;;0.20;0.20;;;11.40;99.90;;;;;;5074651;28;20249;-43
2023/12/25 09:56:04;;;;;;;0.30;0.30;;;11.40;99.90;;;;;;5074626;28;20179;-43
2023/12/25 09:58:32;;;;;;;1.37;0.50;;;11.40;99.90;;;;;;5074918;28;20585;-45
2023/12/25 10:00:58;;;;;;;0.40;0.40;;;11.40;99.90;;;;;;5074173;28;20664;-42
2023/12/25 10:03:26;;;;;;;1.17;0.40;;;11.40;99.90;;;;;;5074508;28;20176;-43
2023/12/25 10:05:53;;;;;;;0.53;0.37;;;11.40;99.90;;;;;;5056663;28;20240;-42
2023/12/25 10:08:18;;;;;;;0.50;0.33;;;11.50;99.90;;;;;;5074460;28;20650;-43
2023/12/25 10:10:49;;;;;;;0.60;0.30;;;11.50;99.90;;;;;;5074325;28;20264;-43
2023/12/25 10:13:15;;;;;;;0.30;0.30;;;11.50;99.90;;;;;;5075036;28;20164;-43
2023/12/25 10:15:47;;;;;;;0.40;0.40;;;11.50;99.90;;;;;;5074528;28;20183;-44
2023/12/25 10:18:12;;;;;;;0.70;0.30;;;11.50;99.90;;;;;;5075496;28;20168;-43
2023/12/25 10:21:01;;;;;;;0.30;0.30;;;11.50;99.90;;;;;;5074038;28;20353;-41
2023/12/25 10:23:29;;;;;;;0.30;0.30;;;11.50;99.90;;;;;;5072927;28;20188;-44
2023/12/25 10:25:59;;;;;;;0.20;0.20;;;11.50;99.90;;;;;;5056229;28;20183;-44
2023/12/25 10:28:28;;;;;;;0.40;0.40;;;11.50;99.90;;;;;;5074978;28;20164;-43
2023/12/25 10:31:04;;;;;;;0.50;0.50;;;11.50;99.90;;;;;;5074216;28;20580;-44
2023/12/25 10:33:37;;;;;;;0.77;0.50;;;11.50;99.90;;;;;;5074381;28;20160;-42
2023/12/25 10:36:09;;;;;;;0.30;0.30;;;11.60;99.90;;;;;;5056777;28;20214;-42
2023/12/25 10:38:35;;;;;;;0.33;0.33;;;11.60;99.90;;;;;;5056599;28;20199;-43
2023/12/25 10:41:18;;;;;;;0.30;0.30;;;11.60;99.90;;;;;;5073915;28;20324;-42
2023/12/25 10:43:58;;;;;;;0.50;0.33;;;11.60;99.90;;;;;;5073867;28;20258;-44
2023/12/25 10:46:26;;;;;;;0.30;0.30;;;11.60;99.90;;;;;;5073715;28;20183;-43
2023/12/25 10:48:55;;;;;;;0.30;0.30;;;11.60;99.90;;;;;;5055987;28;20191;-43
2023/12/25 10:51:41;;;;;;;0.50;0.50;;;11.70;99.90;;;;;;5073498;28;20223;-42
2023/12/25 10:54:10;;;;;;;0.30;0.30;;;11.70;99.90;;;;;;5055763;28;20647;-43
2023/12/25 10:56:37;;;;;;;0.97;0.50;;;11.70;99.90;;;;;;5073972;28;20175;-44
2023/12/25 10:59:28;;;;;;;0.30;0.30;;;11.70;99.90;;;;;;5055708;28;20316;-44
2023/12/25 11:01:57;;;;;;;0.37;0.37;;;11.80;99.90;;;;;;5073841;28;20206;-43
2023/12/25 11:04:24;;;;;;;0.40;0.40;;;11.80;99.90;;;;;;5056383;28;20179;-44
2023/12/25 11:06:54;;;;;;;0.30;0.30;;;11.80;99.90;;;;;;5073555;28;20187;-43
2023/12/25 11:09:20;;;;;;;1.70;0.40;;;11.80;99.90;;;;;;5074141;28;20180;-44
2023/12/25 11:11:46;;;;;;;0.40;0.40;;;11.80;99.90;;;;;;5056590;28;20212;-43
2023/12/25 11:14:18;;;;;;;0.40;0.33;;;11.90;99.90;;;;;;5056619;28;20179;-47
2023/12/25 11:16:46;;;;;;;0.30;0.30;;;11.90;99.90;;;;;;5073675;28;20523;-48
2023/12/25 11:19:12;;;;;;;0.50;0.50;;;11.90;99.90;;;;;;5055448;28;20596;-48
2023/12/25 11:21:41;;;;;;;0.50;0.50;;;11.90;99.90;;;;;;5055423;28;20206;-47
2023/12/25 11:24:08;;;;;;;0.67;0.50;;;11.90;99.90;;;;;;5073597;28;20184;-47
2023/12/25 11:26:34;;;;;;;0.60;0.50;;;12.00;99.90;;;;;;5073537;28;20179;-47
2023/12/25 11:29:02;;;;;;;0.50;0.50;;;11.90;99.90;;;;;;5073253;28;20183;-47
2023/12/25 11:31:29;;;;;;;0.40;0.40;;;12.00;99.90;;;;;;5073225;28;20213;-47
2023/12/25 11:34:23;;;;;;;0.40;0.40;;;12.00;99.90;;;;;;5073876;28;20203;-47
2023/12/25 11:36:59;;;;;;;0.60;0.50;;;12.00;99.90;;;;;;5077409;28;20159;-48
2023/12/25 11:39:28;;;;;;;0.50;0.43;;;12.00;99.90;;;;;;5076593;28;20675;-47
2023/12/25 11:41:55;;;;;;;0.50;0.50;;;12.00;99.90;;;;;;5077289;28;20172;-47
2023/12/25 11:44:32;;;;;;;0.90;0.80;;;12.10;99.90;;;;;;5084677;28;20281;-48
2023/12/25 11:47:02;;;;;;;0.47;0.47;;;12.00;99.90;;;;;;5070479;28;20267;-47
2023/12/25 11:49:32;;;;;;;1.57;0.50;;;12.00;99.90;;;;;;5082024;28;20207;-48
2023/12/25 11:51:59;;;;;;;3.37;0.80;;;12.10;99.90;;;;;;5062532;28;20207;-46
2023/12/25 11:54:29;;;;;;;0.67;0.40;;;12.00;99.90;;;;;;5059532;28;20191;-48
2023/12/25 11:57:22;;;;;;;0.83;0.50;;;12.10;99.90;;;;;;5076259;28;20202;-47
2023/12/25 11:59:51;;;;;;;0.40;0.40;;;12.10;99.90;;;;;;5076895;28;20218;-47
2023/12/25 12:02:16;;;;;;;0.50;0.50;;;12.10;99.90;;;;;;5077275;28;20179;-47
2023/12/25 12:04:42;;;;;;;0.60;0.60;;;12.10;99.90;;;;;;5077366;28;20218;-48
2023/12/25 12:07:11;;;;;;;0.83;0.30;;;12.10;99.90;;;;;;5059315;28;20180;-47
2023/12/25 12:09:36;;;;;;;0.50;0.50;;;12.10;99.90;;;;;;5076954;28;20289;-47
2023/12/25 12:12:04;;;;;;;0.60;0.60;;;12.10;99.90;;;;;;5076905;28;20638;-47
2023/12/25 12:14:29;;;;;;;0.70;0.60;;;12.10;99.90;;;;;;5077055;28;20175;-47
2023/12/25 12:16:58;;;;;;;0.70;0.50;;;12.10;99.90;;;;;;5058901;28;20570;-47
2023/12/25 12:19:27;;;;;;;0.50;0.50;;;12.10;99.90;;;;;;5076892;28;20663;-47
2023/12/25 12:21:58;;;;;;;0.80;0.70;;;12.10;99.90;;;;;;5075793;28;20573;-46
2023/12/25 12:24:33;;;;;;;0.50;0.50;;;12.10;99.90;;;;;;5077262;28;20175;-47
2023/12/25 12:27:10;;;;;;;2.47;0.60;;;12.10;99.90;;;;;;5059995;28;20258;-47
2023/12/25 12:29:36;;;;;;;1.93;0.60;;;12.10;99.90;;;;;;5058485;28;20298;-47
2023/12/25 12:32:10;;;;;;;0.70;0.70;;;12.10;99.90;;;;;;5058694;28;20298;-47
2023/12/25 12:34:37;;;;;;;0.70;0.70;;;12.10;99.90;;;;;;5076663;28;20187;-47
2023/12/25 12:37:09;;;;;;;1.30;0.90;;;12.20;99.90;;;;;;5076555;28;20179;-48
2023/12/25 12:39:36;;;;;;;0.50;0.50;;;12.10;99.90;;;;;;5075814;28;20235;-47
2023/12/25 12:42:09;;;;;;;3.47;0.90;;;12.10;99.90;;;;;;5076087;28;20268;-48
2023/12/25 12:44:38;;;;;;;1.83;0.90;;;12.10;99.90;;;;;;5057730;28;20241;-48
2023/12/25 12:47:07;;;;;;;1.00;0.90;;;12.10;99.90;;;;;;5076081;28;20198;-48
2023/12/25 12:49:36;;;;;;;1.13;0.70;;;12.10;99.90;;;;;;5075983;28;20206;-47
2023/12/25 12:52:02;;;;;;;1.23;0.80;;;12.00;99.90;;;;;;5076159;28;20211;-47
2023/12/25 12:54:28;;;;;;;0.70;0.70;;;12.00;99.90;;;;;;5077116;28;20160;-47
2023/12/25 12:56:55;;;;;;;0.80;0.77;;;12.00;99.90;;;;;;5076490;28;20176;-48
2023/12/25 12:59:23;;;;;;;0.90;0.80;;;12.00;99.90;;;;;;5058247;28;20256;-47
2023/12/25 13:01:52;;;;;;;0.80;0.80;;;12.00;99.90;;;;;;5075834;28;20198;-48